createdAt,value
2018-02-13T00:00:41.892Z,17.02
2018-02-13T00:01:41.885Z,17.02
2018-02-13T00:02:41.894Z,17
2018-02-13T00:03:41.902Z,17.01
2018-02-13T00:04:41.929Z,17
2018-02-13T00:05:41.889Z,17
2018-02-13T00:06:41.883Z,17
2018-02-13T00:07:41.944Z,16.98
2018-02-13T00:08:41.931Z,17.01
2018-02-13T00:09:41.912Z,16.99
2018-02-13T00:10:42.663Z,16.98
2018-02-13T00:11:41.879Z,16.97
2018-02-13T00:12:41.928Z,16.98
2018-02-13T00:13:41.879Z,16.96
2018-02-13T00:14:41.867Z,16.96
2018-02-13T00:15:41.927Z,16.95
2018-02-13T00:16:41.885Z,16.95
2018-02-13T00:17:41.883Z,16.95
2018-02-13T00:18:41.742Z,16.94
2018-02-13T00:19:42.017Z,16.92
2018-02-13T00:20:42.021Z,16.92
2018-02-13T00:21:41.876Z,16.91
2018-02-13T00:22:41.939Z,16.91
2018-02-13T00:23:41.887Z,16.91
2018-02-13T00:24:41.894Z,16.89
2018-02-13T00:25:41.897Z,16.89
2018-02-13T00:26:41.911Z,16.91
2018-02-13T00:27:41.876Z,16.89
2018-02-13T00:28:41.875Z,16.88
2018-02-13T00:29:42.003Z,16.9
2018-02-13T00:30:41.876Z,16.88
2018-02-13T00:31:41.870Z,16.86
2018-02-13T00:32:41.877Z,16.86
2018-02-13T00:33:41.936Z,16.86
2018-02-13T00:34:41.923Z,16.85
2018-02-13T00:35:41.893Z,16.86
2018-02-13T00:36:41.867Z,16.85
2018-02-13T00:37:41.867Z,16.85
2018-02-13T00:38:41.928Z,16.84
2018-02-13T00:39:41.901Z,16.84
2018-02-13T00:40:41.882Z,16.82
2018-02-13T00:41:41.871Z,16.84
2018-02-13T00:42:41.915Z,16.83
2018-02-13T00:43:41.894Z,16.83
2018-02-13T00:44:42.182Z,16.82
2018-02-13T00:45:41.901Z,16.83
2018-02-13T00:46:41.942Z,16.81
2018-02-13T00:47:41.863Z,16.82
2018-02-13T00:48:41.918Z,16.82
2018-02-13T00:49:41.987Z,16.81
2018-02-13T00:50:41.943Z,16.8
2018-02-13T00:51:41.918Z,16.81
2018-02-13T00:52:41.938Z,16.79
2018-02-13T00:53:41.921Z,16.79
2018-02-13T00:54:41.932Z,16.77
2018-02-13T00:55:41.908Z,16.77
2018-02-13T00:56:41.880Z,16.78
2018-02-13T00:57:41.844Z,16.77
2018-02-13T00:58:41.917Z,16.77
2018-02-13T00:59:41.939Z,16.77
2018-02-13T01:00:41.943Z,16.77
2018-02-13T01:01:41.966Z,16.75
2018-02-13T01:02:41.934Z,16.75
2018-02-13T01:03:41.937Z,16.76
2018-02-13T01:04:41.997Z,16.77
2018-02-13T01:05:41.973Z,16.75
2018-02-13T01:06:41.928Z,16.75
2018-02-13T01:07:41.913Z,16.74
2018-02-13T01:08:41.919Z,16.73
2018-02-13T01:09:41.902Z,16.73
2018-02-13T01:10:41.888Z,16.73
2018-02-13T01:11:43.450Z,16.73
2018-02-13T01:12:41.858Z,16.72
2018-02-13T01:13:41.887Z,16.71
2018-02-13T01:14:41.888Z,16.71
2018-02-13T01:15:41.925Z,16.7
2018-02-13T01:16:41.885Z,16.71
2018-02-13T01:17:41.872Z,16.72
2018-02-13T01:18:41.867Z,16.71
2018-02-13T01:19:41.895Z,16.69
2018-02-13T01:20:41.864Z,16.68
2018-02-13T01:21:41.907Z,16.69
2018-02-13T01:22:41.870Z,16.7
2018-02-13T01:23:41.928Z,16.67
2018-02-13T01:24:41.902Z,16.67
2018-02-13T01:25:41.852Z,16.67
2018-02-13T01:26:41.867Z,16.66
2018-02-13T01:27:41.842Z,16.66
2018-02-13T01:28:41.888Z,16.66
2018-02-13T01:29:41.848Z,16.64
2018-02-13T01:30:41.870Z,16.64
2018-02-13T01:31:41.885Z,16.64
2018-02-13T01:32:41.846Z,16.64
2018-02-13T01:33:41.908Z,16.62
2018-02-13T01:34:41.913Z,16.62
2018-02-13T01:35:41.914Z,16.62
2018-02-13T01:36:41.941Z,16.62
2018-02-13T01:37:41.954Z,16.61
2018-02-13T01:38:41.938Z,16.6
2018-02-13T01:40:44.848Z,16.63
2018-02-13T01:41:41.893Z,16.62
2018-02-13T01:42:41.968Z,16.61
2018-02-13T01:43:41.955Z,16.6
2018-02-13T01:44:42.034Z,16.59
2018-02-13T01:45:41.914Z,16.59
2018-02-13T01:46:41.921Z,16.6
2018-02-13T01:47:41.943Z,16.57
2018-02-13T01:48:41.919Z,16.57
2018-02-13T01:49:42.015Z,16.59
2018-02-13T01:50:41.887Z,16.57
2018-02-13T01:51:41.862Z,16.55
2018-02-13T01:52:41.885Z,16.55
2018-02-13T01:53:41.895Z,16.54
2018-02-13T01:54:41.958Z,16.53
2018-02-13T01:55:41.918Z,16.55
2018-02-13T01:56:41.906Z,16.54
2018-02-13T01:57:41.865Z,16.53
2018-02-13T01:58:41.908Z,16.55
2018-02-13T02:03:36.002Z,16.51
2018-02-13T02:04:35.563Z,16.5
2018-02-13T02:05:35.565Z,16.51
2018-02-13T02:06:35.538Z,16.52
2018-02-13T02:07:35.542Z,16.52
2018-02-13T02:08:35.515Z,16.5
2018-02-13T02:09:35.535Z,16.49
2018-02-13T02:10:35.547Z,16.48
2018-02-13T02:11:35.566Z,16.49
2018-02-13T02:12:35.533Z,16.48
2018-02-13T02:13:35.533Z,16.47
2018-02-13T02:14:35.510Z,16.47
2018-02-13T02:15:35.593Z,16.47
2018-02-13T02:16:35.514Z,16.47
2018-02-13T02:17:35.532Z,16.45
2018-02-13T02:18:35.542Z,16.46
2018-02-13T02:19:35.521Z,16.47
2018-02-13T02:20:35.543Z,16.46
2018-02-13T02:21:35.525Z,16.46
2018-02-13T02:22:35.534Z,16.44
2018-02-13T02:23:35.581Z,16.45
2018-02-13T02:24:35.591Z,16.44
2018-02-13T02:25:35.562Z,16.44
2018-02-13T02:26:35.517Z,16.44
2018-02-13T02:27:35.538Z,16.44
2018-02-13T02:28:35.529Z,16.44
2018-02-13T02:29:35.536Z,16.43
2018-02-13T02:30:35.545Z,16.42
2018-02-13T02:31:35.548Z,16.42
2018-02-13T02:32:35.509Z,16.42
2018-02-13T02:33:35.560Z,16.42
2018-02-13T02:34:35.549Z,16.41
2018-02-13T02:35:35.556Z,16.42
2018-02-13T02:36:35.522Z,16.41
2018-02-13T02:37:35.544Z,16.41
2018-02-13T02:38:35.583Z,16.41
2018-02-13T02:39:35.506Z,16.41
2018-02-13T02:40:35.565Z,16.4
2018-02-13T02:41:35.498Z,16.4
2018-02-13T02:42:35.521Z,16.41
2018-02-13T02:43:35.534Z,16.4
2018-02-13T02:44:35.587Z,16.39
2018-02-13T02:45:35.546Z,16.39
2018-02-13T02:46:35.544Z,16.37
2018-02-13T02:47:35.547Z,16.37
2018-02-13T02:48:35.520Z,16.37
2018-02-13T02:49:35.533Z,16.37
2018-02-13T02:50:35.534Z,16.35
2018-02-13T02:51:35.749Z,16.35
2018-02-13T02:52:35.848Z,16.34
2018-02-13T02:53:35.741Z,16.35
2018-02-13T02:54:35.759Z,16.35
2018-02-13T02:55:35.746Z,16.34
2018-02-13T02:56:35.725Z,16.34
2018-02-13T02:57:35.749Z,16.34
2018-02-13T02:58:35.731Z,16.34
2018-02-13T02:59:35.740Z,16.32
2018-02-13T03:00:35.770Z,16.33
2018-02-13T03:01:35.738Z,16.34
2018-02-13T03:02:35.741Z,16.33
2018-02-13T03:03:35.720Z,16.33
2018-02-13T03:04:35.723Z,16.31
2018-02-13T03:05:35.715Z,16.31
2018-02-13T03:06:35.730Z,16.3
2018-02-13T03:07:35.728Z,16.29
2018-02-13T03:13:22.360Z,16.28
2018-02-13T03:14:21.927Z,16.28
2018-02-13T03:15:21.920Z,16.28
2018-02-13T03:16:21.922Z,16.29
2018-02-13T03:18:22.472Z,16.28
2018-02-13T03:19:21.931Z,16.28
2018-02-13T03:20:21.949Z,16.28
2018-02-13T03:21:21.927Z,16.27
2018-02-13T03:22:21.985Z,16.27
2018-02-13T03:23:21.943Z,16.26
2018-02-13T03:24:21.929Z,16.27
2018-02-13T03:25:22.015Z,16.26
2018-02-13T03:26:21.938Z,16.25
2018-02-13T03:27:21.976Z,16.24
2018-02-13T03:28:21.912Z,16.23
2018-02-13T03:29:21.944Z,16.23
2018-02-13T03:30:21.978Z,16.24
2018-02-13T03:31:21.977Z,16.23
2018-02-13T03:32:21.963Z,16.23
2018-02-13T03:33:21.923Z,16.24
2018-02-13T03:34:21.997Z,16.23
2018-02-13T03:35:21.972Z,16.22
2018-02-13T03:36:21.927Z,16.22
2018-02-13T03:37:21.952Z,16.22
2018-02-13T03:38:21.983Z,16.22
2018-02-13T03:39:21.959Z,16.22
2018-02-13T03:40:21.942Z,16.21
2018-02-13T03:41:21.904Z,16.2
2018-02-13T03:42:21.982Z,16.2
2018-02-13T03:43:21.972Z,16.2
2018-02-13T03:44:21.911Z,16.2
2018-02-13T03:45:21.919Z,16.21
2018-02-13T03:46:21.940Z,16.19
2018-02-13T03:47:21.906Z,16.21
2018-02-13T03:48:21.923Z,16.21
2018-02-13T03:49:21.926Z,16.2
2018-02-13T03:50:21.908Z,16.19
2018-02-13T03:51:21.930Z,16.19
2018-02-13T03:52:21.920Z,16.17
2018-02-13T03:53:21.923Z,16.17
2018-02-13T03:54:21.928Z,16.16
2018-02-13T03:55:21.907Z,16.16
2018-02-13T03:56:21.886Z,16.16
2018-02-13T03:57:21.922Z,16.15
2018-02-13T03:58:21.892Z,16.16
2018-02-13T03:59:21.918Z,16.15
2018-02-13T04:00:21.941Z,16.15
2018-02-13T04:01:21.923Z,16.15
2018-02-13T04:02:21.913Z,16.17
2018-02-13T04:03:21.914Z,16.15
2018-02-13T04:04:21.953Z,16.15
2018-02-13T04:05:21.895Z,16.14
2018-02-13T04:06:21.910Z,16.13
2018-02-13T04:07:21.892Z,16.13
2018-02-13T04:08:21.963Z,16.13
2018-02-13T04:09:21.955Z,16.12
2018-02-13T04:10:21.937Z,16.12
2018-02-13T04:11:21.887Z,16.12
2018-02-13T04:12:21.906Z,16.13
2018-02-13T04:13:21.921Z,16.13
2018-02-13T04:14:21.913Z,16.11
2018-02-13T04:15:21.913Z,16.11
2018-02-13T04:16:21.928Z,16.1
2018-02-13T04:17:21.909Z,16.09
2018-02-13T04:18:21.923Z,16.09
2018-02-13T04:19:21.963Z,16.09
2018-02-13T04:20:21.905Z,16.08
2018-02-13T04:21:21.891Z,16.09
2018-02-13T04:22:21.888Z,16.09
2018-02-13T04:23:21.922Z,16.08
2018-02-13T04:24:21.900Z,16.09
2018-02-13T04:25:21.903Z,16.09
2018-02-13T04:26:21.904Z,16.09
2018-02-13T04:27:21.891Z,16.08
2018-02-13T04:28:21.885Z,16.06
2018-02-13T04:29:21.987Z,16.06
2018-02-13T04:30:21.892Z,16.06
2018-02-13T04:31:21.906Z,16.06
2018-02-13T04:32:21.912Z,16.05
2018-02-13T04:33:21.883Z,16.05
2018-02-13T04:34:21.899Z,16.05
2018-02-13T04:35:21.909Z,16.05
2018-02-13T04:36:21.934Z,16.04
2018-02-13T04:37:21.899Z,16.03
2018-02-13T04:38:21.897Z,16.04
2018-02-13T04:39:21.936Z,16.03
2018-02-13T04:40:21.882Z,16.03
2018-02-13T04:41:21.954Z,16.03
2018-02-13T04:42:21.909Z,16.02
2018-02-13T04:43:21.901Z,16.02
2018-02-13T04:44:21.877Z,16.03
2018-02-13T04:45:21.897Z,16.03
2018-02-13T04:46:21.910Z,16.02
2018-02-13T04:47:21.956Z,16.02
2018-02-13T04:48:21.899Z,16.02
2018-02-13T04:49:21.871Z,16.02
2018-02-13T04:50:21.888Z,16.02
2018-02-13T04:51:21.899Z,16.04
2018-02-13T04:52:21.877Z,16.03
2018-02-13T04:53:21.917Z,16.02
2018-02-13T04:54:21.996Z,16.05
2018-02-13T04:55:21.988Z,16.04
2018-02-13T04:56:21.897Z,16.02
2018-02-13T04:57:21.882Z,16.02
2018-02-13T04:58:21.884Z,16.04
2018-02-13T04:59:21.904Z,16.04
2018-02-13T05:00:21.877Z,16.05
2018-02-13T05:01:21.930Z,16.05
2018-02-13T05:02:21.907Z,16.05
2018-02-13T05:03:21.908Z,16.06
2018-02-13T05:04:21.897Z,16.07
2018-02-13T05:05:21.918Z,16.07
2018-02-13T05:06:21.894Z,16.08
2018-02-13T05:07:21.876Z,16.09
2018-02-13T05:08:21.905Z,16.09
2018-02-13T05:09:21.870Z,16.1
2018-02-13T05:10:21.904Z,16.1
2018-02-13T05:11:21.901Z,16.12
2018-02-13T05:12:21.898Z,16.12
2018-02-13T05:13:21.931Z,16.13
2018-02-13T05:14:21.866Z,16.13
2018-02-13T05:15:21.931Z,16.15
2018-02-13T05:16:21.939Z,16.16
2018-02-13T05:17:21.899Z,16.17
2018-02-13T05:18:21.920Z,16.17
2018-02-13T05:19:21.934Z,16.18
2018-02-13T05:20:21.892Z,16.19
2018-02-13T05:21:21.885Z,16.2
2018-02-13T05:22:21.867Z,16.21
2018-02-13T05:23:21.878Z,16.22
2018-02-13T05:24:21.912Z,16.22
2018-02-13T05:25:21.869Z,16.23
2018-02-13T05:26:21.899Z,16.23
2018-02-13T05:28:22.520Z,16.25
2018-02-13T05:29:21.927Z,16.26
2018-02-13T05:30:21.960Z,16.27
2018-02-13T05:31:21.936Z,16.28
2018-02-13T05:32:22.019Z,16.28
2018-02-13T05:33:21.923Z,16.29
2018-02-13T05:34:21.987Z,16.29
2018-02-13T05:35:21.913Z,16.29
2018-02-13T05:36:21.930Z,16.3
2018-02-13T05:37:21.936Z,16.31
2018-02-13T05:38:21.900Z,16.32
2018-02-13T05:39:21.921Z,16.33
2018-02-13T05:40:21.910Z,16.34
2018-02-13T05:41:21.909Z,16.34
2018-02-13T05:42:21.928Z,16.34
2018-02-13T05:43:21.930Z,16.35
2018-02-13T05:44:21.909Z,16.36
2018-02-13T05:45:21.908Z,16.37
2018-02-13T05:46:21.920Z,16.38
2018-02-13T05:47:21.977Z,16.39
2018-02-13T05:48:21.939Z,16.41
2018-02-13T05:49:21.919Z,16.42
2018-02-13T05:50:21.927Z,16.43
2018-02-13T05:51:21.910Z,16.46
2018-02-13T05:52:21.931Z,16.47
2018-02-13T05:53:21.941Z,16.48
2018-02-13T05:54:21.904Z,16.49
2018-02-13T05:55:21.894Z,16.51
2018-02-13T05:56:21.909Z,16.53
2018-02-13T05:57:21.913Z,16.53
2018-02-13T05:58:28.065Z,16.55
2018-02-13T05:59:21.874Z,16.58
2018-02-13T06:00:21.928Z,16.59
2018-02-13T06:01:21.865Z,16.6
2018-02-13T06:02:21.878Z,16.62
2018-02-13T06:03:21.883Z,16.64
2018-02-13T06:04:22.210Z,16.66
2018-02-13T06:05:21.892Z,16.67
2018-02-13T06:06:21.884Z,16.68
2018-02-13T06:07:21.905Z,16.7
2018-02-13T06:08:21.879Z,16.71
2018-02-13T06:09:21.929Z,16.73
2018-02-13T06:10:21.885Z,16.75
2018-02-13T06:11:21.901Z,16.76
2018-02-13T06:12:21.891Z,16.77
2018-02-13T06:13:21.878Z,16.79
2018-02-13T06:14:21.873Z,16.79
2018-02-13T06:15:21.886Z,16.81
2018-02-13T06:16:21.909Z,16.82
2018-02-13T06:17:21.868Z,16.84
2018-02-13T06:18:21.853Z,16.85
2018-02-13T06:19:21.896Z,16.85
2018-02-13T06:20:21.875Z,16.86
2018-02-13T06:21:21.853Z,16.88
2018-02-13T06:22:21.926Z,16.89
2018-02-13T06:23:21.887Z,16.9
2018-02-13T06:24:21.932Z,16.92
2018-02-13T06:25:21.861Z,16.92
2018-02-13T06:26:21.870Z,16.93
2018-02-13T06:27:21.859Z,16.94
2018-02-13T06:28:21.899Z,16.96
2018-02-13T06:29:21.887Z,16.97
2018-02-13T06:30:21.886Z,16.97
2018-02-13T06:31:21.868Z,16.98
2018-02-13T06:32:21.883Z,17
2018-02-13T06:33:21.864Z,17
2018-02-13T06:34:21.928Z,17.02
2018-02-13T06:35:21.863Z,17.03
2018-02-13T06:36:21.937Z,17.04
2018-02-13T06:37:21.877Z,17.04
2018-02-13T06:38:21.869Z,17.05
2018-02-13T06:39:21.895Z,17.06
2018-02-13T06:40:21.867Z,17.07
2018-02-13T06:41:21.905Z,17.09
2018-02-13T06:42:21.878Z,17.1
2018-02-13T06:43:21.897Z,17.1
2018-02-13T06:44:21.925Z,17.11
2018-02-13T06:45:21.906Z,17.12
2018-02-13T06:46:21.930Z,17.13
2018-02-13T06:47:21.939Z,17.14
2018-02-13T06:48:21.870Z,17.15
2018-02-13T06:49:21.866Z,17.15
2018-02-13T06:50:21.888Z,17.17
2018-02-13T06:51:21.905Z,17.17
2018-02-13T06:52:21.878Z,17.17
2018-02-13T06:53:21.857Z,17.18
2018-02-13T06:54:21.851Z,17.19
2018-02-13T06:55:21.972Z,17.2
2018-02-13T06:56:22.566Z,17.22
2018-02-13T06:57:21.857Z,17.23
2018-02-13T06:58:21.864Z,17.23
2018-02-13T06:59:21.869Z,17.23
2018-02-13T07:00:21.851Z,17.24
2018-02-13T07:01:21.893Z,17.26
2018-02-13T07:02:21.913Z,17.26
2018-02-13T07:03:21.899Z,17.27
2018-02-13T07:04:21.837Z,17.28
2018-02-13T07:05:21.874Z,17.29
2018-02-13T07:06:21.886Z,17.29
2018-02-13T07:07:21.870Z,17.29
2018-02-13T07:08:21.949Z,17.29
2018-02-13T07:09:21.872Z,17.34
2018-02-13T07:10:21.859Z,17.34
2018-02-13T07:11:22.066Z,17.34
2018-02-13T07:12:21.865Z,17.35
2018-02-13T07:13:21.868Z,17.36
2018-02-13T07:14:21.849Z,17.36
2018-02-13T07:15:21.860Z,17.36
2018-02-13T07:16:21.890Z,17.37
2018-02-13T07:17:21.863Z,17.37
2018-02-13T07:18:21.850Z,17.39
2018-02-13T07:19:21.901Z,17.39
2018-02-13T07:20:21.858Z,17.4
2018-02-13T07:21:21.893Z,17.42
2018-02-13T07:22:21.919Z,17.42
2018-02-13T07:23:21.853Z,17.44
2018-02-13T07:24:21.871Z,17.44
2018-02-13T07:25:21.874Z,17.45
2018-02-13T07:26:21.883Z,17.46
2018-02-13T07:27:21.901Z,17.47
2018-02-13T07:28:21.859Z,17.48
2018-02-13T07:29:21.854Z,17.49
2018-02-13T07:30:21.838Z,17.51
2018-02-13T07:31:21.941Z,17.52
2018-02-13T07:32:21.863Z,17.53
2018-02-13T07:33:21.863Z,17.54
2018-02-13T07:34:21.853Z,17.55
2018-02-13T07:35:21.843Z,17.52
2018-02-13T07:36:21.888Z,17.53
2018-02-13T07:37:21.840Z,17.53
2018-02-13T07:38:21.865Z,17.54
2018-02-13T07:39:21.850Z,17.53
2018-02-13T07:40:21.910Z,17.54
2018-02-13T07:41:21.872Z,17.54
2018-02-13T07:42:21.879Z,17.54
2018-02-13T07:43:21.901Z,17.55
2018-02-13T07:44:21.861Z,17.55
2018-02-13T07:45:21.836Z,17.55
2018-02-13T07:46:21.957Z,17.56
2018-02-13T07:47:21.847Z,17.56
2018-02-13T07:48:21.862Z,17.56
2018-02-13T07:49:21.854Z,17.57
2018-02-13T07:50:21.835Z,17.58
2018-02-13T07:51:21.867Z,17.59
2018-02-13T07:52:21.857Z,17.58
2018-02-13T07:53:21.870Z,17.58
2018-02-13T07:54:21.848Z,17.59
2018-02-13T07:55:21.830Z,17.6
2018-02-13T07:56:21.878Z,17.6
2018-02-13T07:57:21.864Z,17.6
2018-02-13T07:58:21.871Z,17.61
2018-02-13T07:59:21.883Z,17.61
2018-02-13T08:00:21.876Z,17.61
2018-02-13T08:01:21.898Z,17.62
2018-02-13T08:02:21.925Z,17.62
2018-02-13T08:03:21.871Z,17.62
2018-02-13T08:04:21.851Z,17.63
2018-02-13T08:05:21.824Z,17.63
2018-02-13T08:06:21.858Z,17.65
2018-02-13T08:07:21.891Z,17.65
2018-02-13T08:08:21.864Z,17.65
2018-02-13T08:09:21.892Z,17.66
2018-02-13T08:10:21.869Z,17.66
2018-02-13T08:11:21.865Z,17.67
2018-02-13T08:12:21.877Z,17.67
2018-02-13T08:13:22.137Z,17.67
2018-02-13T08:14:21.866Z,17.68
2018-02-13T08:15:21.932Z,17.68
2018-02-13T08:16:21.875Z,17.69
2018-02-13T08:17:21.919Z,17.69
2018-02-13T08:18:21.995Z,17.7
2018-02-13T08:19:21.845Z,17.71
2018-02-13T08:20:21.848Z,17.72
2018-02-13T08:21:21.865Z,17.72
2018-02-13T08:22:21.863Z,17.72
2018-02-13T08:23:21.898Z,17.73
2018-02-13T08:24:21.888Z,17.73
2018-02-13T08:25:21.887Z,17.74
2018-02-13T08:26:21.855Z,17.74
2018-02-13T08:27:21.866Z,17.75
2018-02-13T08:28:21.878Z,17.76
2018-02-13T08:29:21.878Z,17.76
2018-02-13T08:30:21.854Z,17.77
2018-02-13T08:31:21.868Z,17.78
2018-02-13T08:32:21.851Z,17.79
2018-02-13T08:33:21.874Z,17.79
2018-02-13T08:34:22.127Z,17.79
2018-02-13T08:35:21.849Z,17.8
2018-02-13T08:36:21.860Z,17.8
2018-02-13T08:37:21.888Z,17.81
2018-02-13T08:38:21.831Z,17.82
2018-02-13T08:39:21.888Z,17.82
2018-02-13T08:40:21.847Z,17.83
2018-02-13T08:41:21.852Z,17.83
2018-02-13T08:42:21.824Z,17.84
2018-02-13T08:43:21.835Z,17.85
2018-02-13T08:44:21.862Z,17.86
2018-02-13T08:45:21.888Z,17.86
2018-02-13T08:46:21.858Z,17.86
2018-02-13T08:47:21.834Z,17.87
2018-02-13T08:48:21.880Z,17.86
2018-02-13T08:49:21.926Z,17.87
2018-02-13T08:50:21.843Z,17.89
2018-02-13T08:51:21.861Z,17.89
2018-02-13T08:52:21.828Z,17.89
2018-02-13T08:53:21.841Z,17.9
2018-02-13T08:54:21.883Z,17.9
2018-02-13T08:55:21.831Z,17.91
2018-02-13T08:56:21.938Z,17.91
2018-02-13T08:57:21.829Z,17.91
2018-02-13T08:58:21.852Z,17.91
2018-02-13T08:59:21.889Z,17.92
2018-02-13T09:00:21.858Z,17.92
2018-02-13T09:01:21.856Z,17.92
2018-02-13T09:02:21.885Z,17.92
2018-02-13T09:03:21.921Z,17.92
2018-02-13T09:04:21.847Z,17.93
2018-02-13T09:05:21.829Z,17.93
2018-02-13T09:06:21.852Z,17.93
2018-02-13T09:07:21.835Z,17.94
2018-02-13T09:08:21.856Z,17.93
2018-02-13T09:09:21.930Z,17.93
2018-02-13T09:10:21.822Z,17.94
2018-02-13T09:11:21.817Z,17.94
2018-02-13T09:12:21.828Z,17.94
2018-02-13T09:13:21.820Z,17.94
2018-02-13T09:14:21.892Z,17.94
2018-02-13T09:15:21.835Z,17.95
2018-02-13T09:16:21.865Z,17.95
2018-02-13T09:17:21.859Z,17.95
2018-02-13T09:18:21.855Z,17.96
2018-02-13T09:19:21.931Z,17.96
2018-02-13T09:20:22.192Z,17.96
2018-02-13T09:21:21.890Z,17.96
2018-02-13T09:22:21.849Z,17.96
2018-02-13T09:23:21.841Z,18.02
2018-02-13T09:24:21.877Z,18
2018-02-13T09:25:21.898Z,18.01
2018-02-13T09:26:21.846Z,18.02
2018-02-13T09:27:21.828Z,18.03
2018-02-13T09:28:21.835Z,18.02
2018-02-13T09:29:21.932Z,18.05
2018-02-13T09:30:21.855Z,18.07
2018-02-13T09:31:21.830Z,18.1
2018-02-13T09:32:21.875Z,18.1
2018-02-13T09:33:21.834Z,18.16
2018-02-13T09:34:21.848Z,18.16
2018-02-13T09:35:21.853Z,18.17
2018-02-13T09:36:21.857Z,18.18
2018-02-13T09:37:21.862Z,18.17
2018-02-13T09:38:21.830Z,18.15
2018-02-13T09:39:21.859Z,18.16
2018-02-13T09:40:21.874Z,18.18
2018-02-13T09:41:21.859Z,18.17
2018-02-13T09:42:21.832Z,18.17
2018-02-13T09:43:21.855Z,18.19
2018-02-13T09:44:21.893Z,18.18
2018-02-13T09:45:21.854Z,18.17
2018-02-13T09:46:21.823Z,18.16
2018-02-13T09:47:21.864Z,18.15
2018-02-13T09:48:21.852Z,18.15
2018-02-13T09:49:21.821Z,18.15
2018-02-13T09:50:21.859Z,18.14
2018-02-13T09:51:21.858Z,18.14
2018-02-13T09:52:21.854Z,18.13
2018-02-13T09:53:21.873Z,18.13
2018-02-13T09:54:21.910Z,18.13
2018-02-13T09:55:21.922Z,18.13
2018-02-13T09:56:22.268Z,18.13
2018-02-13T09:57:21.844Z,18.12
2018-02-13T09:58:21.871Z,18.13
2018-02-13T09:59:21.874Z,18.12
2018-02-13T10:00:21.851Z,18.12
2018-02-13T10:01:21.858Z,18.11
2018-02-13T10:02:21.934Z,18.11
2018-02-13T10:03:21.851Z,18.11
2018-02-13T10:04:21.861Z,18.1
2018-02-13T10:05:21.889Z,18.1
2018-02-13T10:06:21.849Z,18.12
2018-02-13T10:07:21.913Z,18.12
2018-02-13T10:08:21.898Z,18.1
2018-02-13T10:09:21.894Z,18.1
2018-02-13T10:10:21.873Z,18.09
2018-02-13T10:11:21.895Z,18.08
2018-02-13T10:12:21.898Z,18.06
2018-02-13T10:13:21.905Z,18.06
2018-02-13T10:14:21.879Z,18.05
2018-02-13T10:15:21.865Z,18.04
2018-02-13T10:16:22.190Z,18.03
2018-02-13T10:17:21.843Z,18.02
2018-02-13T10:18:21.902Z,18.01
2018-02-13T10:19:21.823Z,18
2018-02-13T10:20:21.812Z,17.99
2018-02-13T10:21:21.858Z,17.98
2018-02-13T10:22:21.891Z,17.98
2018-02-13T10:23:21.887Z,17.97
2018-02-13T10:24:21.912Z,17.96
2018-02-13T10:25:21.922Z,17.94
2018-02-13T10:26:21.944Z,17.93
2018-02-13T10:27:21.874Z,17.92
2018-02-13T10:28:21.887Z,17.92
2018-02-13T10:29:21.891Z,17.91
2018-02-13T10:30:21.908Z,17.9
2018-02-13T10:31:21.988Z,17.89
2018-02-13T10:32:21.882Z,17.88
2018-02-13T10:33:21.873Z,17.87
2018-02-13T10:34:21.808Z,17.86
2018-02-13T10:35:21.947Z,17.85
2018-02-13T10:36:21.856Z,17.84
2018-02-13T10:37:21.881Z,17.79
2018-02-13T10:38:21.941Z,17.78
2018-02-13T10:39:21.840Z,17.73
2018-02-13T10:40:21.843Z,17.73
2018-02-13T10:41:21.854Z,17.71
2018-02-13T10:42:21.925Z,17.69
2018-02-13T10:43:21.866Z,17.68
2018-02-13T10:44:21.843Z,17.67
2018-02-13T10:45:21.926Z,17.65
2018-02-13T10:46:22.008Z,17.65
2018-02-13T10:47:21.832Z,17.62
2018-02-13T10:48:21.843Z,17.61
2018-02-13T10:49:21.856Z,17.63
2018-02-13T10:50:21.860Z,17.66
2018-02-13T10:51:21.831Z,17.66
2018-02-13T10:52:22.030Z,17.66
2018-02-13T10:53:21.931Z,17.67
2018-02-13T10:54:27.981Z,17.67
2018-02-13T10:55:21.815Z,17.67
2018-02-13T10:56:21.815Z,17.67
2018-02-13T10:57:21.892Z,17.67
2018-02-13T10:58:21.816Z,17.67
2018-02-13T10:59:21.810Z,17.67
2018-02-13T11:00:21.813Z,17.67
2018-02-13T11:01:21.942Z,17.65
2018-02-13T11:02:21.947Z,17.65
2018-02-13T11:03:21.844Z,17.65
2018-02-13T11:04:21.879Z,17.64
2018-02-13T11:05:21.792Z,17.64
2018-02-13T11:06:21.881Z,17.63
2018-02-13T11:07:21.795Z,17.62
2018-02-13T11:08:21.806Z,17.63
2018-02-13T11:09:21.814Z,17.63
2018-02-13T11:10:21.915Z,17.61
2018-02-13T11:11:21.865Z,17.61
2018-02-13T11:12:21.829Z,17.61
2018-02-13T11:13:21.998Z,17.61
2018-02-13T11:14:21.808Z,17.6
2018-02-13T11:15:21.897Z,17.61
2018-02-13T11:16:21.829Z,17.62
2018-02-13T11:17:21.830Z,17.63
2018-02-13T11:18:21.862Z,17.62
2018-02-13T11:19:21.818Z,17.61
2018-02-13T11:20:21.837Z,17.61
2018-02-13T11:21:21.856Z,17.62
2018-02-13T11:22:21.801Z,17.62
2018-02-13T11:23:21.792Z,17.63
2018-02-13T11:24:21.801Z,17.64
2018-02-13T11:25:21.826Z,17.66
2018-02-13T11:26:21.931Z,17.67
2018-02-13T11:27:21.806Z,17.69
2018-02-13T11:28:21.855Z,17.72
2018-02-13T11:29:21.787Z,17.74
2018-02-13T11:30:21.829Z,17.73
2018-02-13T11:31:21.863Z,17.73
2018-02-13T11:32:21.818Z,17.78
2018-02-13T11:33:21.803Z,17.79
2018-02-13T11:34:21.829Z,17.81
2018-02-13T11:35:21.824Z,17.81
2018-02-13T11:36:21.784Z,17.8
2018-02-13T11:37:21.877Z,17.86
2018-02-13T11:38:21.798Z,17.86
2018-02-13T11:39:21.831Z,17.88
2018-02-13T11:40:21.805Z,17.91
2018-02-13T11:41:21.812Z,17.89
2018-02-13T11:42:21.807Z,17.9
2018-02-13T11:43:21.905Z,17.94
2018-02-13T11:44:21.800Z,17.97
2018-02-13T11:45:21.822Z,17.98
2018-02-13T11:46:21.811Z,17.97
2018-02-13T11:47:21.800Z,17.97
2018-02-13T11:48:21.792Z,17.98
2018-02-13T11:49:21.788Z,17.98
2018-02-13T11:50:21.813Z,17.99
2018-02-13T11:51:21.790Z,18.04
2018-02-13T11:52:21.851Z,18.04
2018-02-13T11:53:21.848Z,18.03
2018-02-13T11:54:21.840Z,18.03
2018-02-13T11:55:25.208Z,18.03
2018-02-13T11:56:21.807Z,18.04
2018-02-13T11:57:21.845Z,18.05
2018-02-13T11:58:21.838Z,18.06
2018-02-13T11:59:21.834Z,18.07
2018-02-13T12:00:24.937Z,18.07
2018-02-13T12:01:21.825Z,18.09
2018-02-13T12:02:22.799Z,18.08
2018-02-13T12:03:21.799Z,18.08
2018-02-13T12:04:21.999Z,18.09
2018-02-13T12:05:21.803Z,18.09
2018-02-13T12:06:21.827Z,18.07
2018-02-13T12:07:21.818Z,18.06
2018-02-13T12:08:21.835Z,18.04
2018-02-13T12:09:21.958Z,18.04
2018-02-13T12:10:21.924Z,18.03
2018-02-13T12:11:22.843Z,18.02
2018-02-13T12:12:22.761Z,18.01
2018-02-13T12:13:21.900Z,18.02
2018-02-13T12:14:22.779Z,18.04
2018-02-13T12:15:22.804Z,18.08
2018-02-13T12:16:22.781Z,18.11
2018-02-13T12:17:22.781Z,18.14
2018-02-13T12:18:21.828Z,18.15
2018-02-13T12:19:22.458Z,18.17
2018-02-13T12:20:22.805Z,18.21
2018-02-13T12:21:22.843Z,18.21
2018-02-13T12:22:22.768Z,18.22
2018-02-13T12:23:22.801Z,18.24
2018-02-13T12:24:23.244Z,18.25
2018-02-13T12:25:22.777Z,18.29
2018-02-13T12:26:22.785Z,18.29
2018-02-13T12:27:23.025Z,18.29
2018-02-13T12:28:21.926Z,18.27
2018-02-13T12:29:22.010Z,18.25
2018-02-13T12:30:22.773Z,18.12
2018-02-13T12:31:22.873Z,17.88
2018-02-13T12:32:22.767Z,17.7
2018-02-13T12:33:24.966Z,17.57
2018-02-13T12:34:22.050Z,17.45
2018-02-13T12:35:22.801Z,17.4
2018-02-13T12:36:22.797Z,17.33
2018-02-13T12:37:22.810Z,17.29
2018-02-13T12:38:22.791Z,17.37
2018-02-13T12:39:22.810Z,17.45
2018-02-13T12:40:22.589Z,17.49
2018-02-13T12:41:22.790Z,17.54
2018-02-13T12:42:22.764Z,17.56
2018-02-13T12:43:21.893Z,17.6
2018-02-13T12:44:22.775Z,17.63
2018-02-13T12:45:22.670Z,17.66
2018-02-13T12:46:22.774Z,17.67
2018-02-13T12:47:22.777Z,17.7
2018-02-13T12:48:22.797Z,17.72
2018-02-13T12:49:22.788Z,17.73
2018-02-13T12:50:22.859Z,17.75
2018-02-13T12:51:22.779Z,17.78
2018-02-13T12:52:22.779Z,17.78
2018-02-13T12:53:22.782Z,17.79
2018-02-13T12:54:23.024Z,17.81
2018-02-13T12:55:22.727Z,17.83
2018-02-13T12:56:22.799Z,17.84
2018-02-13T12:57:22.855Z,17.85
2018-02-13T12:58:21.861Z,17.86
2018-02-13T12:59:22.802Z,17.87
2018-02-13T13:00:22.040Z,17.88
2018-02-13T13:01:22.782Z,17.89
2018-02-13T13:02:22.783Z,17.9
2018-02-13T13:03:22.783Z,17.92
2018-02-13T13:04:22.767Z,17.92
2018-02-13T13:05:22.223Z,17.92
2018-02-13T13:06:22.849Z,17.95
2018-02-13T13:07:21.795Z,17.97